sensor_id;sensor_type;location;lat;lon;timestamp;pressure;altitude;pressure_sealevel;temperature;humidity
43553;BME280;29153;42.696;23.218;2023-08-06T00:00:10;93331.13;;;18.37;100.00
43553;BME280;29153;42.696;23.218;2023-08-06T00:02:38;93316.73;;;18.45;100.00
43553;BME280;29153;42.696;23.218;2023-08-06T00:05:07;93308.58;;;18.48;100.00
43553;BME280;29153;42.696;23.218;2023-08-06T00:07:34;93350.19;;;18.42;100.00
43553;BME280;29153;42.696;23.218;2023-08-06T00:10:06;93364.23;;;18.35;100.00
43553;BME280;29153;42.696;23.218;2023-08-06T00:12:39;93357.87;;;18.34;100.00
43553;BME280;29153;42.696;23.218;2023-08-06T00:15:07;93351.31;;;18.41;100.00
43553;BME280;29153;42.696;23.218;2023-08-06T00:17:37;93357.83;;;18.40;100.00
43553;BME280;29153;42.696;23.218;2023-08-06T00:20:05;93348.63;;;18.41;100.00
43553;BME280;29153;42.696;23.218;2023-08-06T00:22:48;93346.45;;;18.46;100.00
43553;BME280;29153;42.696;23.218;2023-08-06T00:30:24;93353.38;;;18.47;100.00
43553;BME280;29153;42.696;23.218;2023-08-06T00:33:06;93337.46;;;18.54;100.00
43553;BME280;29153;42.696;23.218;2023-08-06T00:35:40;93336.02;;;18.51;100.00
43553;BME280;29153;42.696;23.218;2023-08-06T00:40:55;93323.38;;;18.42;100.00
43553;BME280;29153;42.696;23.218;2023-08-06T00:43:24;93318.02;;;18.42;100.00
43553;BME280;29153;42.696;23.218;2023-08-06T00:48:22;93345.61;;;18.42;100.00
43553;BME280;29153;42.696;23.218;2023-08-06T00:50:50;93330.01;;;18.38;100.00
43553;BME280;29153;42.696;23.218;2023-08-06T00:53:37;93325.41;;;18.29;100.00
43553;BME280;29153;42.696;23.218;2023-08-06T00:56:04;93327.19;;;18.31;100.00
43553;BME280;29153;42.696;23.218;2023-08-06T00:58:32;93328.72;;;18.23;100.00
43553;BME280;29153;42.696;23.218;2023-08-06T01:01:00;93331.23;;;18.15;100.00
43553;BME280;29153;42.696;23.218;2023-08-06T01:03:29;93322.44;;;18.25;100.00
43553;BME280;29153;42.696;23.218;2023-08-06T01:06:02;93321.58;;;18.20;100.00
43553;BME280;29153;42.696;23.218;2023-08-06T01:11:31;93299.42;;;18.24;100.00
43553;BME280;29153;42.696;23.218;2023-08-06T01:14:08;93286.46;;;18.26;100.00
43553;BME280;29153;42.696;23.218;2023-08-06T01:16:36;93286.30;;;18.18;100.00
43553;BME280;29153;42.696;23.218;2023-08-06T01:19:17;93291.09;;;18.09;100.00
43553;BME280;29153;42.696;23.218;2023-08-06T01:21:45;93291.84;;;18.10;100.00
43553;BME280;29153;42.696;23.218;2023-08-06T01:24:13;93284.00;;;18.01;100.00
43553;BME280;29153;42.696;23.218;2023-08-06T01:29:39;93298.84;;;18.14;100.00
43553;BME280;29153;42.696;23.218;2023-08-06T01:32:05;93301.52;;;18.14;100.00
43553;BME280;29153;42.696;23.218;2023-08-06T01:34:34;93292.36;;;18.15;100.00
43553;BME280;29153;42.696;23.218;2023-08-06T01:37:03;93286.42;;;18.06;100.00
43553;BME280;29153;42.696;23.218;2023-08-06T01:39:33;93284.40;;;18.09;100.00
43553;BME280;29153;42.696;23.218;2023-08-06T01:42:01;93281.42;;;18.14;100.00
43553;BME280;29153;42.696;23.218;2023-08-06T01:44:30;93275.70;;;18.06;100.00
43553;BME280;29153;42.696;23.218;2023-08-06T01:47:12;93284.25;;;18.12;100.00
43553;BME280;29153;42.696;23.218;2023-08-06T01:49:40;93288.12;;;18.14;100.00
43553;BME280;29153;42.696;23.218;2023-08-06T01:52:08;93278.74;;;18.14;100.00
43553;BME280;29153;42.696;23.218;2023-08-06T01:54:35;93292.07;;;18.11;100.00
43553;BME280;29153;42.696;23.218;2023-08-06T01:57:03;93287.76;;;18.06;100.00
43553;BME280;29153;42.696;23.218;2023-08-06T01:59:30;93265.05;;;18.10;100.00
43553;BME280;29153;42.696;23.218;2023-08-06T02:04:39;93258.72;;;18.08;100.00
43553;BME280;29153;42.696;23.218;2023-08-06T02:07:07;93264.44;;;18.16;100.00
43553;BME280;29153;42.696;23.218;2023-08-06T02:09:38;93258.94;;;18.09;100.00
43553;BME280;29153;42.696;23.218;2023-08-06T02:17:54;93254.26;;;18.06;100.00
43553;BME280;29153;42.696;23.218;2023-08-06T02:20:22;93258.09;;;18.05;100.00
43553;BME280;29153;42.696;23.218;2023-08-06T02:22:49;93285.16;;;18.00;100.00
43553;BME280;29153;42.696;23.218;2023-08-06T02:25:26;93285.16;;;18.00;100.00
43553;BME280;29153;42.696;23.218;2023-08-06T02:27:53;93303.64;;;18.05;100.00
43553;BME280;29153;42.696;23.218;2023-08-06T02:30:21;93263.44;;;18.15;100.00
43553;BME280;29153;42.696;23.218;2023-08-06T02:32:49;93263.44;;;18.15;100.00
43553;BME280;29153;42.696;23.218;2023-08-06T02:35:16;93246.39;;;18.13;100.00
43553;BME280;29153;42.696;23.218;2023-08-06T02:37:45;93246.39;;;18.13;100.00
43553;BME280;29153;42.696;23.218;2023-08-06T02:40:15;93261.32;;;18.14;100.00
43553;BME280;29153;42.696;23.218;2023-08-06T02:42:42;93283.40;;;18.08;100.00
43553;BME280;29153;42.696;23.218;2023-08-06T02:45:10;93294.07;;;18.14;100.00
43553;BME280;29153;42.696;23.218;2023-08-06T02:47:37;93297.95;;;18.16;100.00
43553;BME280;29153;42.696;23.218;2023-08-06T02:50:06;93297.95;;;18.16;100.00
43553;BME280;29153;42.696;23.218;2023-08-06T02:52:33;93273.60;;;18.15;100.00
43553;BME280;29153;42.696;23.218;2023-08-06T02:55:01;93265.73;;;18.23;100.00
43553;BME280;29153;42.696;23.218;2023-08-06T02:57:29;93258.31;;;18.26;100.00
43553;BME280;29153;42.696;23.218;2023-08-06T02:59:56;93266.16;;;18.34;100.00
43553;BME280;29153;42.696;23.218;2023-08-06T03:02:24;93271.14;;;18.36;100.00
43553;BME280;29153;42.696;23.218;2023-08-06T03:04:54;93251.34;;;18.31;100.00
43553;BME280;29153;42.696;23.218;2023-08-06T03:09:56;93191.64;;;18.24;100.00
43553;BME280;29153;42.696;23.218;2023-08-06T03:12:31;93202.22;;;18.07;100.00
43553;BME280;29153;42.696;23.218;2023-08-06T03:17:51;93260.76;;;18.15;100.00
43553;BME280;29153;42.696;23.218;2023-08-06T03:20:17;93241.86;;;18.08;100.00
43553;BME280;29153;42.696;23.218;2023-08-06T03:22:44;93212.58;;;18.18;100.00
43553;BME280;29153;42.696;23.218;2023-08-06T03:25:17;93222.12;;;18.26;100.00
43553;BME280;29153;42.696;23.218;2023-08-06T03:28:20;93252.24;;;18.29;100.00
43553;BME280;29153;42.696;23.218;2023-08-06T03:30:58;93246.47;;;18.27;100.00
43553;BME280;29153;42.696;23.218;2023-08-06T03:33:26;93240.05;;;18.22;100.00
43553;BME280;29153;42.696;23.218;2023-08-06T03:36:03;93261.13;;;18.13;100.00
43553;BME280;29153;42.696;23.218;2023-08-06T03:38:28;93263.45;;;18.05;100.00
43553;BME280;29153;42.696;23.218;2023-08-06T03:40:55;93261.81;;;18.10;100.00
43553;BME280;29153;42.696;23.218;2023-08-06T03:43:26;93278.89;;;18.12;100.00
43553;BME280;29153;42.696;23.218;2023-08-06T03:45:55;93278.25;;;18.18;100.00
43553;BME280;29153;42.696;23.218;2023-08-06T03:48:22;93279.00;;;18.35;100.00
43553;BME280;29153;42.696;23.218;2023-08-06T03:50:50;93267.78;;;18.39;100.00
43553;BME280;29153;42.696;23.218;2023-08-06T03:53:19;93269.11;;;18.29;100.00
43553;BME280;29153;42.696;23.218;2023-08-06T03:55:52;93283.29;;;18.30;100.00
43553;BME280;29153;42.696;23.218;2023-08-06T03:58:59;93281.67;;;18.35;100.00
43553;BME280;29153;42.696;23.218;2023-08-06T04:01:17;93281.41;;;18.40;100.00
43553;BME280;29153;42.696;23.218;2023-08-06T04:32:44;93287.06;;;18.54;100.00
43553;BME280;29153;42.696;23.218;2023-08-06T04:37:50;93285.11;;;18.60;100.00
43553;BME280;29153;42.696;23.218;2023-08-06T04:40:22;93281.20;;;18.58;100.00
43553;BME280;29153;42.696;23.218;2023-08-06T04:45:21;93288.42;;;18.73;100.00
43553;BME280;29153;42.696;23.218;2023-08-06T04:47:51;93277.03;;;18.80;100.00
43553;BME280;29153;42.696;23.218;2023-08-06T04:50:21;93273.50;;;18.95;100.00
43553;BME280;29153;42.696;23.218;2023-08-06T04:52:49;93275.69;;;18.89;100.00
43553;BME280;29153;42.696;23.218;2023-08-06T04:55:23;93260.42;;;18.93;100.00
43553;BME280;29153;42.696;23.218;2023-08-06T04:57:47;93253.65;;;18.99;100.00
43553;BME280;29153;42.696;23.218;2023-08-06T05:00:17;93169.34;;;18.58;100.00
43553;BME280;29153;42.696;23.218;2023-08-06T05:02:44;93236.45;;;19.04;100.00
43553;BME280;29153;42.696;23.218;2023-08-06T05:05:11;93235.88;;;19.04;100.00
43553;BME280;29153;42.696;23.218;2023-08-06T05:07:39;93228.59;;;19.15;100.00
43553;BME280;29153;42.696;23.218;2023-08-06T05:10:07;93221.84;;;19.01;100.00
43553;BME280;29153;42.696;23.218;2023-08-06T05:12:35;93239.34;;;19.05;100.00
43553;BME280;29153;42.696;23.218;2023-08-06T05:15:07;93240.74;;;19.08;100.00
43553;BME280;29153;42.696;23.218;2023-08-06T05:17:32;93237.88;;;19.07;100.00
43553;BME280;29153;42.696;23.218;2023-08-06T05:20:00;93240.61;;;19.11;100.00
43553;BME280;29153;42.696;23.218;2023-08-06T05:22:28;93236.05;;;19.02;100.00
43553;BME280;29153;42.696;23.218;2023-08-06T05:24:55;93241.45;;;19.15;100.00
43553;BME280;29153;42.696;23.218;2023-08-06T05:27:24;93250.10;;;19.28;100.00
43553;BME280;29153;42.696;23.218;2023-08-06T05:29:58;93244.38;;;19.29;100.00
43553;BME280;29153;42.696;23.218;2023-08-06T05:32:25;93245.12;;;19.30;100.00
43553;BME280;29153;42.696;23.218;2023-08-06T12:43:22;93341.92;;;25.16;61.66
43553;BME280;29153;42.696;23.218;2023-08-06T12:45:49;93338.30;;;25.04;64.13
43553;BME280;29153;42.696;23.218;2023-08-06T12:48:18;93336.42;;;24.80;58.63
43553;BME280;29153;42.696;23.218;2023-08-06T12:50:45;93343.80;;;24.72;60.45
43553;BME280;29153;42.696;23.218;2023-08-06T12:53:12;93335.09;;;24.66;62.73
43553;BME280;29153;42.696;23.218;2023-08-06T12:55:39;93341.10;;;24.69;64.24
43553;BME280;29153;42.696;23.218;2023-08-06T12:58:08;93339.16;;;24.73;64.82
43553;BME280;29153;42.696;23.218;2023-08-06T13:00:39;93341.91;;;24.52;61.33
43553;BME280;29153;42.696;23.218;2023-08-06T13:03:07;93341.11;;;24.58;59.84
43553;BME280;29153;42.696;23.218;2023-08-06T13:05:36;93335.89;;;24.59;59.72
43553;BME280;29153;42.696;23.218;2023-08-06T13:08:04;93337.61;;;24.72;60.83
43553;BME280;29153;42.696;23.218;2023-08-06T13:10:31;93333.54;;;24.72;60.02
43553;BME280;29153;42.696;23.218;2023-08-06T13:12:57;93339.52;;;24.89;59.84
43553;BME280;29153;42.696;23.218;2023-08-06T13:15:25;93348.23;;;24.71;56.80
43553;BME280;29153;42.696;23.218;2023-08-06T13:17:52;93337.44;;;24.64;58.23
43553;BME280;29153;42.696;23.218;2023-08-06T13:20:19;93343.80;;;24.65;59.83
43553;BME280;29153;42.696;23.218;2023-08-06T13:22:49;93352.34;;;24.49;61.42
43553;BME280;29153;42.696;23.218;2023-08-06T13:25:19;93346.36;;;24.46;63.51
43553;BME280;29153;42.696;23.218;2023-08-06T13:27:48;93348.70;;;24.34;64.39
43553;BME280;29153;42.696;23.218;2023-08-06T13:30:16;93349.84;;;24.36;65.52
43553;BME280;29153;42.696;23.218;2023-08-06T13:32:44;93355.65;;;24.28;62.55
43553;BME280;29153;42.696;23.218;2023-08-06T13:35:12;93344.63;;;24.23;62.35
43553;BME280;29153;42.696;23.218;2023-08-06T13:37:39;93338.81;;;24.35;65.12
43553;BME280;29153;42.696;23.218;2023-08-06T13:40:06;93349.23;;;24.47;59.29
43553;BME280;29153;42.696;23.218;2023-08-06T13:42:35;93346.86;;;24.85;58.11
43553;BME280;29153;42.696;23.218;2023-08-06T13:45:02;93343.10;;;25.15;61.19
43553;BME280;29153;42.696;23.218;2023-08-06T13:47:33;93338.59;;;25.27;58.29
43553;BME280;29153;42.696;23.218;2023-08-06T13:50:00;93344.14;;;25.39;55.27
43553;BME280;29153;42.696;23.218;2023-08-06T13:52:29;93350.11;;;25.49;56.14
43553;BME280;29153;42.696;23.218;2023-08-06T13:54:57;93347.95;;;25.56;53.74
43553;BME280;29153;42.696;23.218;2023-08-06T13:57:24;93337.97;;;25.75;54.86
43553;BME280;29153;42.696;23.218;2023-08-06T13:59:50;93338.44;;;25.92;57.68
43553;BME280;29153;42.696;23.218;2023-08-06T14:02:17;93337.50;;;25.87;55.15
43553;BME280;29153;42.696;23.218;2023-08-06T14:04:45;93332.10;;;25.83;54.20
43553;BME280;29153;42.696;23.218;2023-08-06T14:07:12;93333.06;;;25.81;51.45
43553;BME280;29153;42.696;23.218;2023-08-06T14:09:38;93328.42;;;25.82;52.19
43553;BME280;29153;42.696;23.218;2023-08-06T14:12:08;93334.37;;;25.92;56.99
43553;BME280;29153;42.696;23.218;2023-08-06T14:14:49;93333.78;;;25.89;54.52
43553;BME280;29153;42.696;23.218;2023-08-06T14:17:20;93328.48;;;25.75;49.81
43553;BME280;29153;42.696;23.218;2023-08-06T14:19:48;93319.11;;;25.83;53.70
43553;BME280;29153;42.696;23.218;2023-08-06T14:22:14;93335.34;;;25.90;48.32
43553;BME280;29153;42.696;23.218;2023-08-06T14:24:44;93334.14;;;25.95;46.84
43553;BME280;29153;42.696;23.218;2023-08-06T14:27:13;93333.95;;;25.94;45.66
43553;BME280;29153;42.696;23.218;2023-08-06T14:29:41;93328.75;;;25.91;45.96
43553;BME280;29153;42.696;23.218;2023-08-06T14:32:08;93334.30;;;25.99;46.58
43553;BME280;29153;42.696;23.218;2023-08-06T14:34:37;93339.77;;;25.96;46.40
43553;BME280;29153;42.696;23.218;2023-08-06T14:37:04;93285.77;;;25.57;46.46
43553;BME280;29153;42.696;23.218;2023-08-06T14:39:37;93338.77;;;26.01;46.28
43553;BME280;29153;42.696;23.218;2023-08-06T14:42:01;93346.29;;;26.05;46.73
43553;BME280;29153;42.696;23.218;2023-08-06T14:44:35;93354.44;;;26.02;47.80
43553;BME280;29153;42.696;23.218;2023-08-06T14:46:59;93349.84;;;25.95;46.47
43553;BME280;29153;42.696;23.218;2023-08-06T14:49:31;93338.77;;;26.01;48.15
43553;BME280;29153;42.696;23.218;2023-08-06T14:51:55;93341.61;;;26.06;48.90
43553;BME280;29153;42.696;23.218;2023-08-06T14:54:24;93340.67;;;26.04;50.20
43553;BME280;29153;42.696;23.218;2023-08-06T14:56:53;93337.95;;;26.04;49.72
43553;BME280;29153;42.696;23.218;2023-08-06T14:59:20;93331.06;;;26.18;52.70
43553;BME280;29153;42.696;23.218;2023-08-06T15:02:02;93328.88;;;25.99;50.31
43553;BME280;29153;42.696;23.218;2023-08-06T15:04:28;93329.91;;;25.90;52.12
43553;BME280;29153;42.696;23.218;2023-08-06T15:06:52;93325.22;;;25.94;51.04
43553;BME280;29153;42.696;23.218;2023-08-06T15:09:24;93327.58;;;25.92;49.83
43553;BME280;29153;42.696;23.218;2023-08-06T15:11:52;93318.86;;;25.89;50.93
43553;BME280;29153;42.696;23.218;2023-08-06T15:14:18;93322.30;;;25.67;52.86
43553;BME280;29153;42.696;23.218;2023-08-06T15:16:51;93321.72;;;25.68;52.71
43553;BME280;29153;42.696;23.218;2023-08-06T15:19:14;93320.30;;;25.46;52.20
43553;BME280;29153;42.696;23.218;2023-08-06T15:21:41;93314.92;;;25.35;56.64
43553;BME280;29153;42.696;23.218;2023-08-06T15:24:10;93317.72;;;25.17;54.96
43553;BME280;29153;42.696;23.218;2023-08-06T15:26:36;93321.98;;;25.18;62.17
43553;BME280;29153;42.696;23.218;2023-08-06T15:29:04;93315.45;;;25.05;57.77
43553;BME280;29153;42.696;23.218;2023-08-06T15:31:37;93319.00;;;24.88;58.05
43553;BME280;29153;42.696;23.218;2023-08-06T15:34:07;93310.27;;;24.96;58.35
43553;BME280;29153;42.696;23.218;2023-08-06T15:36:35;93306.59;;;24.98;55.38
43553;BME280;29153;42.696;23.218;2023-08-06T15:39:03;93307.54;;;25.03;58.29
43553;BME280;29153;42.696;23.218;2023-08-06T15:41:31;93316.20;;;25.09;59.03
43553;BME280;29153;42.696;23.218;2023-08-06T15:43:58;93319.89;;;25.11;58.70
43553;BME280;29153;42.696;23.218;2023-08-06T15:46:27;93329.39;;;25.04;55.65
43553;BME280;29153;42.696;23.218;2023-08-06T15:48:55;93329.63;;;24.90;56.29
43553;BME280;29153;42.696;23.218;2023-08-06T15:51:22;93333.70;;;24.94;64.04
43553;BME280;29153;42.696;23.218;2023-08-06T15:53:49;93337.38;;;24.92;58.58
43553;BME280;29153;42.696;23.218;2023-08-06T15:56:18;93346.66;;;24.91;56.16
43553;BME280;29153;42.696;23.218;2023-08-06T15:58:47;93345.68;;;24.97;56.79
43553;BME280;29153;42.696;23.218;2023-08-06T16:01:19;93349.56;;;24.92;55.47
43553;BME280;29153;42.696;23.218;2023-08-06T16:03:43;93361.16;;;24.82;47.11
43553;BME280;29153;42.696;23.218;2023-08-06T16:06:11;93364.09;;;24.76;45.84
43553;BME280;29153;42.696;23.218;2023-08-06T16:08:39;93367.20;;;24.71;46.09
43553;BME280;29153;42.696;23.218;2023-08-06T16:11:07;93369.13;;;24.74;46.96
43553;BME280;29153;42.696;23.218;2023-08-06T16:13:35;93375.52;;;24.72;46.90
43553;BME280;29153;42.696;23.218;2023-08-06T16:16:02;93370.87;;;24.76;47.09
43553;BME280;29153;42.696;23.218;2023-08-06T16:18:29;93366.83;;;24.69;49.39
43553;BME280;29153;42.696;23.218;2023-08-06T16:20:57;93375.11;;;24.73;46.78
43553;BME280;29153;42.696;23.218;2023-08-06T16:23:24;93375.70;;;24.69;48.21
43553;BME280;29153;42.696;23.218;2023-08-06T16:25:52;93382.88;;;24.68;48.47
43553;BME280;29153;42.696;23.218;2023-08-06T16:28:20;93377.84;;;24.66;48.42
43553;BME280;29153;42.696;23.218;2023-08-06T16:30:46;93382.09;;;24.71;48.98
43553;BME280;29153;42.696;23.218;2023-08-06T16:33:15;93377.83;;;24.73;48.08
43553;BME280;29153;42.696;23.218;2023-08-06T16:35:43;93384.23;;;24.71;48.23
43553;BME280;29153;42.696;23.218;2023-08-06T16:38:10;93392.37;;;24.64;47.97
43553;BME280;29153;42.696;23.218;2023-08-06T16:40:38;93392.56;;;24.69;48.50
43553;BME280;29153;42.696;23.218;2023-08-06T16:43:06;93396.25;;;24.60;47.51
43553;BME280;29153;42.696;23.218;2023-08-06T16:45:38;93392.58;;;24.51;48.62
43553;BME280;29153;42.696;23.218;2023-08-06T16:48:06;93403.80;;;24.46;48.26
43553;BME280;29153;42.696;23.218;2023-08-06T16:50:34;93400.70;;;24.40;47.75
43553;BME280;29153;42.696;23.218;2023-08-06T16:53:04;93401.08;;;24.35;48.88
43553;BME280;29153;42.696;23.218;2023-08-06T16:55:32;93348.47;;;23.97;49.86
43553;BME280;29153;42.696;23.218;2023-08-06T16:58:03;93409.41;;;24.29;48.38
43553;BME280;29153;42.696;23.218;2023-08-06T17:00:30;93416.36;;;24.20;48.64
43553;BME280;29153;42.696;23.218;2023-08-06T17:02:58;93418.66;;;24.18;49.40
43553;BME280;29153;42.696;23.218;2023-08-06T17:05:25;93425.23;;;24.13;49.35
43553;BME280;29153;42.696;23.218;2023-08-06T17:07:52;93426.75;;;24.14;49.46
43553;BME280;29153;42.696;23.218;2023-08-06T17:10:20;93431.79;;;24.09;50.30
43553;BME280;29153;42.696;23.218;2023-08-06T17:12:49;93432.16;;;24.07;49.45
43553;BME280;29153;42.696;23.218;2023-08-06T17:15:17;93432.13;;;23.96;49.60
43553;BME280;29153;42.696;23.218;2023-08-06T17:17:47;93444.51;;;23.94;50.08
43553;BME280;29153;42.696;23.218;2023-08-06T17:20:16;93441.39;;;23.85;49.61
43553;BME280;29153;42.696;23.218;2023-08-06T17:22:44;93449.34;;;23.87;49.81
43553;BME280;29153;42.696;23.218;2023-08-06T17:25:11;93443.47;;;23.71;49.27
43553;BME280;29153;42.696;23.218;2023-08-06T17:27:41;93446.37;;;23.65;49.71
43553;BME280;29153;42.696;23.218;2023-08-06T17:30:09;93457.55;;;23.64;49.87
43553;BME280;29153;42.696;23.218;2023-08-06T17:32:37;93457.19;;;23.65;48.39
43553;BME280;29153;42.696;23.218;2023-08-06T17:35:06;93457.14;;;23.58;48.26
43553;BME280;29153;42.696;23.218;2023-08-06T17:37:34;93464.10;;;23.59;48.79
43553;BME280;29153;42.696;23.218;2023-08-06T17:40:02;93471.22;;;23.50;47.93
43553;BME280;29153;42.696;23.218;2023-08-06T17:42:29;93473.92;;;23.54;46.70
43553;BME280;29153;42.696;23.218;2023-08-06T17:44:57;93469.50;;;23.55;47.58
43553;BME280;29153;42.696;23.218;2023-08-06T17:47:25;93476.83;;;23.51;47.44
43553;BME280;29153;42.696;23.218;2023-08-06T17:49:52;93446.56;;;23.28;47.10
43553;BME280;29153;42.696;23.218;2023-08-06T17:52:23;93479.22;;;23.36;47.91
43553;BME280;29153;42.696;23.218;2023-08-06T17:54:50;93484.83;;;23.37;47.74
43553;BME280;29153;42.696;23.218;2023-08-06T17:57:18;93488.48;;;23.32;48.44
43553;BME280;29153;42.696;23.218;2023-08-06T17:59:46;93496.38;;;23.27;48.28
43553;BME280;29153;42.696;23.218;2023-08-06T18:02:15;93498.67;;;23.25;48.43
43553;BME280;29153;42.696;23.218;2023-08-06T18:04:42;93500.99;;;23.23;49.74
43553;BME280;29153;42.696;23.218;2023-08-06T18:07:10;93499.20;;;23.14;49.05
43553;BME280;29153;42.696;23.218;2023-08-06T18:09:38;93506.34;;;23.16;50.10
43553;BME280;29153;42.696;23.218;2023-08-06T18:12:06;93511.52;;;23.11;50.49
43553;BME280;29153;42.696;23.218;2023-08-06T18:14:37;93512.64;;;23.07;50.38
43553;BME280;29153;42.696;23.218;2023-08-06T18:17:05;93529.98;;;23.02;50.45
43553;BME280;29153;42.696;23.218;2023-08-06T18:19:34;93527.34;;;23.09;50.88
43553;BME280;29153;42.696;23.218;2023-08-06T18:22:02;93531.38;;;23.06;51.49
43553;BME280;29153;42.696;23.218;2023-08-06T18:24:29;93525.33;;;22.99;51.53
43553;BME280;29153;42.696;23.218;2023-08-06T18:26:57;93529.02;;;23.01;52.42
43553;BME280;29153;42.696;23.218;2023-08-06T18:29:24;93539.75;;;22.94;51.72
43553;BME280;29153;42.696;23.218;2023-08-06T18:31:52;93538.23;;;22.93;52.06
43553;BME280;29153;42.696;23.218;2023-08-06T18:34:20;93541.61;;;22.83;52.04
43553;BME280;29153;42.696;23.218;2023-08-06T18:36:47;93543.89;;;22.81;52.77
43553;BME280;29153;42.696;23.218;2023-08-06T18:39:15;93540.59;;;22.78;54.01
43553;BME280;29153;42.696;23.218;2023-08-06T18:41:42;93551.56;;;22.72;54.26
43553;BME280;29153;42.696;23.218;2023-08-06T18:44:11;93551.17;;;22.73;54.41
43553;BME280;29153;42.696;23.218;2023-08-06T18:46:39;93559.55;;;22.64;54.77
43553;BME280;29153;42.696;23.218;2023-08-06T18:49:08;93554.88;;;22.58;56.25
43553;BME280;29153;42.696;23.218;2023-08-06T18:51:36;93556.38;;;22.55;57.61
43553;BME280;29153;42.696;23.218;2023-08-06T18:54:04;93560.48;;;22.42;56.15
43553;BME280;29153;42.696;23.218;2023-08-06T18:56:32;93563.88;;;22.32;57.09
43553;BME280;29153;42.696;23.218;2023-08-06T18:58:59;93575.42;;;22.29;55.50
43553;BME280;29153;42.696;23.218;2023-08-06T19:01:27;93567.50;;;22.30;55.88
43553;BME280;29153;42.696;23.218;2023-08-06T19:04:08;93576.89;;;22.23;55.83
43553;BME280;29153;42.696;23.218;2023-08-06T19:06:27;93567.70;;;22.11;61.68
43553;BME280;29153;42.696;23.218;2023-08-06T19:08:55;93580.09;;;21.99;58.78
43553;BME280;29153;42.696;23.218;2023-08-06T19:11:23;93572.71;;;21.96;57.54
43553;BME280;29153;42.696;23.218;2023-08-06T19:13:52;93574.34;;;21.91;57.38
43553;BME280;29153;42.696;23.218;2023-08-06T19:16:21;93577.64;;;21.90;56.85
43553;BME280;29153;42.696;23.218;2023-08-06T19:18:50;93579.09;;;21.84;56.24
43553;BME280;29153;42.696;23.218;2023-08-06T19:21:18;93586.16;;;21.79;56.42
43553;BME280;29153;42.696;23.218;2023-08-06T19:23:46;93594.71;;;21.85;57.96
43553;BME280;29153;42.696;23.218;2023-08-06T19:26:14;93610.34;;;21.72;57.90
43553;BME280;29153;42.696;23.218;2023-08-06T19:28:42;93620.87;;;21.67;57.16
43553;BME280;29153;42.696;23.218;2023-08-06T19:31:11;93668.25;;;21.68;56.74
43553;BME280;29153;42.696;23.218;2023-08-06T19:33:41;93725.10;;;21.24;64.36
43553;BME280;29153;42.696;23.218;2023-08-06T19:36:08;93748.29;;;20.48;67.69
43553;BME280;29153;42.696;23.218;2023-08-06T19:38:36;93771.94;;;20.14;68.79
43553;BME280;29153;42.696;23.218;2023-08-06T19:41:06;93787.23;;;19.53;70.92
43553;BME280;29153;42.696;23.218;2023-08-06T19:43:36;93786.07;;;19.01;72.73
43553;BME280;29153;42.696;23.218;2023-08-06T19:46:04;93799.56;;;18.61;74.75
43553;BME280;29153;42.696;23.218;2023-08-06T19:48:33;93805.11;;;18.10;77.24
43553;BME280;29153;42.696;23.218;2023-08-06T19:51:00;93812.63;;;17.86;79.03
43553;BME280;29153;42.696;23.218;2023-08-06T19:53:30;93825.68;;;17.63;80.56
43553;BME280;29153;42.696;23.218;2023-08-06T19:56:01;93817.11;;;17.58;81.11
43553;BME280;29153;42.696;23.218;2023-08-06T19:58:31;93826.11;;;17.53;81.72
43553;BME280;29153;42.696;23.218;2023-08-06T20:01:00;93828.97;;;17.42;82.48
43553;BME280;29153;42.696;23.218;2023-08-06T20:03:28;93826.86;;;17.36;83.34
43553;BME280;29153;42.696;23.218;2023-08-06T20:06:02;93831.11;;;17.37;83.79
43553;BME280;29153;42.696;23.218;2023-08-06T20:08:34;93838.90;;;17.42;83.58
43553;BME280;29153;42.696;23.218;2023-08-06T20:10:58;93838.90;;;17.42;83.58
43553;BME280;29153;42.696;23.218;2023-08-06T20:13:26;93836.69;;;17.44;83.54
43553;BME280;29153;42.696;23.218;2023-08-06T20:15:54;93844.16;;;17.44;83.74
43553;BME280;29153;42.696;23.218;2023-08-06T20:18:22;93847.51;;;17.47;83.96
43553;BME280;29153;42.696;23.218;2023-08-06T20:20:52;93842.62;;;17.49;84.48
43553;BME280;29153;42.696;23.218;2023-08-06T20:23:20;93846.47;;;17.34;85.68
43553;BME280;29153;42.696;23.218;2023-08-06T20:25:48;93848.60;;;17.28;86.33
43553;BME280;29153;42.696;23.218;2023-08-06T20:28:15;93855.06;;;17.27;86.58
43553;BME280;29153;42.696;23.218;2023-08-06T20:30:43;93851.02;;;17.21;87.12
43553;BME280;29153;42.696;23.218;2023-08-06T20:33:11;93846.66;;;17.16;87.58
43553;BME280;29153;42.696;23.218;2023-08-06T20:35:40;93844.65;;;17.13;87.70
43553;BME280;29153;42.696;23.218;2023-08-06T20:38:08;93847.36;;;17.19;87.92
43553;BME280;29153;42.696;23.218;2023-08-06T20:40:39;93850.23;;;17.20;88.66
43553;BME280;29153;42.696;23.218;2023-08-06T20:43:07;93837.75;;;17.24;87.93
43553;BME280;29153;42.696;23.218;2023-08-06T20:45:35;93829.17;;;17.25;87.96
43553;BME280;29153;42.696;23.218;2023-08-06T20:48:03;93830.39;;;17.21;88.13
43553;BME280;29153;42.696;23.218;2023-08-06T20:50:31;93834.98;;;17.27;88.28
43553;BME280;29153;42.696;23.218;2023-08-06T20:52:59;93833.30;;;17.28;88.05
43553;BME280;29153;42.696;23.218;2023-08-06T20:55:27;93831.64;;;17.24;88.83
43553;BME280;29153;42.696;23.218;2023-08-06T20:57:54;93829.60;;;17.21;88.91
43553;BME280;29153;42.696;23.218;2023-08-06T21:00:22;93826.73;;;17.20;88.23
43553;BME280;29153;42.696;23.218;2023-08-06T21:02:49;93829.28;;;17.22;88.63
43553;BME280;29153;42.696;23.218;2023-08-06T21:05:17;93825.59;;;17.21;88.80